sensor_id;sensor_type;location;lat;lon;timestamp;pressure;altitude;pressure_sealevel;temperature;humidity
73594;BME280;64760;53.404;23.498;2024-01-27T00:01:56;99219.03;;;5.90;53.90
73594;BME280;64760;53.404;23.498;2024-01-27T00:04:22;99226.03;;;6.58;52.16
73594;BME280;64760;53.404;23.498;2024-01-27T00:06:48;99219.63;;;5.01;56.03
73594;BME280;64760;53.404;23.498;2024-01-27T00:09:15;99220.34;;;5.94;53.81
73594;BME280;64760;53.404;23.498;2024-01-27T00:11:41;99210.81;;;5.54;54.85
73594;BME280;64760;53.404;23.498;2024-01-27T00:14:07;99213.78;;;6.05;53.65
73594;BME280;64760;53.404;23.498;2024-01-27T00:16:34;99204.69;;;6.14;53.27
73594;BME280;64760;53.404;23.498;2024-01-27T00:19:00;99209.34;;;5.52;55.07
73594;BME280;64760;53.404;23.498;2024-01-27T00:21:27;99208.22;;;5.92;54.72
73594;BME280;64760;53.404;23.498;2024-01-27T00:23:53;99212.66;;;5.31;55.59
73594;BME280;64760;53.404;23.498;2024-01-27T00:26:21;99204.47;;;5.78;55.47
73594;BME280;64760;53.404;23.498;2024-01-27T00:28:47;99223.00;;;5.49;56.47
73594;BME280;64760;53.404;23.498;2024-01-27T00:31:14;99209.53;;;4.97;57.32
73594;BME280;64760;53.404;23.498;2024-01-27T00:33:40;99213.59;;;6.21;52.94
73594;BME280;64760;53.404;23.498;2024-01-27T00:36:10;99219.72;;;5.92;53.74
73594;BME280;64760;53.404;23.498;2024-01-27T00:38:36;99218.50;;;6.47;53.22
73594;BME280;64760;53.404;23.498;2024-01-27T00:41:04;99212.34;;;6.32;53.33
73594;BME280;64760;53.404;23.498;2024-01-27T00:43:31;99213.00;;;5.51;56.36
73594;BME280;64760;53.404;23.498;2024-01-27T00:46:00;99219.44;;;9.41;49.14
73594;BME280;64760;53.404;23.498;2024-01-27T00:48:26;99208.56;;;9.43;46.65
73594;BME280;64760;53.404;23.498;2024-01-27T00:50:54;99207.34;;;8.98;48.07
73594;BME280;64760;53.404;23.498;2024-01-27T00:53:21;99199.72;;;8.54;49.04
73594;BME280;64760;53.404;23.498;2024-01-27T00:55:48;99201.84;;;8.65;49.24
73594;BME280;64760;53.404;23.498;2024-01-27T00:58:17;99205.53;;;8.30;50.33
73594;BME280;64760;53.404;23.498;2024-01-27T01:00:44;99190.19;;;7.89;51.00
73594;BME280;64760;53.404;23.498;2024-01-27T01:03:11;99191.34;;;8.29;50.85
73594;BME280;64760;53.404;23.498;2024-01-27T01:05:38;99187.28;;;8.12;53.75
73594;BME280;64760;53.404;23.498;2024-01-27T01:08:04;99190.47;;;7.73;52.50
73594;BME280;64760;53.404;23.498;2024-01-27T01:10:32;99197.03;;;8.88;51.03
73594;BME280;64760;53.404;23.498;2024-01-27T01:12:59;99193.03;;;8.37;51.68
73594;BME280;64760;53.404;23.498;2024-01-27T01:15:25;99184.72;;;8.25;51.82
73594;BME280;64760;53.404;23.498;2024-01-27T01:17:51;99201.66;;;9.14;49.93
73594;BME280;64760;53.404;23.498;2024-01-27T01:20:17;99183.13;;;9.00;50.10
73594;BME280;64760;53.404;23.498;2024-01-27T01:22:43;99180.19;;;7.70;53.49
73594;BME280;64760;53.404;23.498;2024-01-27T01:25:10;99190.16;;;8.32;51.49
73594;BME280;64760;53.404;23.498;2024-01-27T01:27:36;99183.00;;;8.11;52.37
73594;BME280;64760;53.404;23.498;2024-01-27T01:30:03;99185.22;;;8.08;53.23
73594;BME280;64760;53.404;23.498;2024-01-27T01:32:29;99189.59;;;8.84;52.01
73594;BME280;64760;53.404;23.498;2024-01-27T01:34:55;99193.94;;;7.95;53.49
73594;BME280;64760;53.404;23.498;2024-01-27T01:37:21;99185.19;;;8.29;52.17
73594;BME280;64760;53.404;23.498;2024-01-27T01:39:47;99190.09;;;7.76;53.65
73594;BME280;64760;53.404;23.498;2024-01-27T01:42:13;99188.34;;;8.39;52.49
73594;BME280;64760;53.404;23.498;2024-01-27T01:44:40;99175.00;;;7.90;52.70
73594;BME280;64760;53.404;23.498;2024-01-27T01:47:07;99183.97;;;8.03;53.67
73594;BME280;64760;53.404;23.498;2024-01-27T01:49:35;99178.19;;;8.00;52.77
73594;BME280;64760;53.404;23.498;2024-01-27T01:52:01;99187.00;;;8.56;52.06
73594;BME280;64760;53.404;23.498;2024-01-27T01:54:28;99171.16;;;7.29;55.40
73594;BME280;64760;53.404;23.498;2024-01-27T01:56:58;99189.25;;;7.33;56.15
73594;BME280;64760;53.404;23.498;2024-01-27T01:59:24;99185.44;;;8.13;54.05
73594;BME280;64760;53.404;23.498;2024-01-27T02:01:50;99187.25;;;6.99;56.92
73594;BME280;64760;53.404;23.498;2024-01-27T02:04:17;99185.13;;;7.73;54.35
73594;BME280;64760;53.404;23.498;2024-01-27T02:06:43;99173.16;;;8.18;53.45
73594;BME280;64760;53.404;23.498;2024-01-27T02:09:09;99179.72;;;7.45;55.23
73594;BME280;64760;53.404;23.498;2024-01-27T02:11:35;99198.47;;;7.31;100.00
73594;BME280;64760;53.404;23.498;2024-01-27T02:14:02;99179.03;;;7.37;63.28
73594;BME280;64760;53.404;23.498;2024-01-27T02:16:28;99181.38;;;8.17;57.21
73594;BME280;64760;53.404;23.498;2024-01-27T02:18:54;99177.25;;;7.65;57.56
73594;BME280;64760;53.404;23.498;2024-01-27T02:21:20;99183.75;;;7.35;57.44
73594;BME280;64760;53.404;23.498;2024-01-27T02:23:47;99174.84;;;8.47;54.89
73594;BME280;64760;53.404;23.498;2024-01-27T02:26:13;99177.13;;;8.57;54.78
73594;BME280;64760;53.404;23.498;2024-01-27T02:28:39;99175.22;;;7.67;56.96
73594;BME280;64760;53.404;23.498;2024-01-27T02:31:05;99168.84;;;8.17;55.48
73594;BME280;64760;53.404;23.498;2024-01-27T02:33:32;99183.78;;;7.20;59.67
73594;BME280;64760;53.404;23.498;2024-01-27T02:36:00;99181.16;;;7.05;59.12
73594;BME280;64760;53.404;23.498;2024-01-27T02:38:27;99176.91;;;7.68;57.70
73594;BME280;64760;53.404;23.498;2024-01-27T02:40:53;99184.88;;;6.75;60.76
73594;BME280;64760;53.404;23.498;2024-01-27T02:43:19;99190.47;;;6.95;60.65
73594;BME280;64760;53.404;23.498;2024-01-27T02:45:45;99184.75;;;7.34;59.16
73594;BME280;64760;53.404;23.498;2024-01-27T02:48:12;99178.53;;;7.69;57.45
73594;BME280;64760;53.404;23.498;2024-01-27T02:50:37;99186.47;;;8.12;56.26
73594;BME280;64760;53.404;23.498;2024-01-27T02:53:04;99177.09;;;8.50;54.84
73594;BME280;64760;53.404;23.498;2024-01-27T02:55:30;99177.91;;;7.46;57.50
73594;BME280;64760;53.404;23.498;2024-01-27T02:57:56;99184.19;;;7.38;58.67
73594;BME280;64760;53.404;23.498;2024-01-27T03:00:22;99185.78;;;7.75;57.42
73594;BME280;64760;53.404;23.498;2024-01-27T03:02:49;99191.81;;;7.63;58.07
73594;BME280;64760;53.404;23.498;2024-01-27T03:05:15;99194.31;;;8.41;54.43
73594;BME280;64760;53.404;23.498;2024-01-27T03:07:42;99197.94;;;8.33;55.53
73594;BME280;64760;53.404;23.498;2024-01-27T03:10:08;99195.94;;;7.65;57.51
73594;BME280;64760;53.404;23.498;2024-01-27T03:12:35;99195.59;;;7.53;58.27
73594;BME280;64760;53.404;23.498;2024-01-27T03:15:01;99180.44;;;6.97;59.76
73594;BME280;64760;53.404;23.498;2024-01-27T03:17:27;99194.03;;;7.59;57.41
73594;BME280;64760;53.404;23.498;2024-01-27T03:19:53;99184.94;;;7.75;57.87
73594;BME280;64760;53.404;23.498;2024-01-27T03:22:19;99196.75;;;7.44;58.52
73594;BME280;64760;53.404;23.498;2024-01-27T03:24:45;99188.25;;;7.34;59.40
73594;BME280;64760;53.404;23.498;2024-01-27T03:27:12;99192.59;;;8.06;56.38
73594;BME280;64760;53.404;23.498;2024-01-27T03:29:38;99189.09;;;8.05;56.06
73594;BME280;64760;53.404;23.498;2024-01-27T03:32:05;99190.69;;;7.99;54.79
73594;BME280;64760;53.404;23.498;2024-01-27T03:34:31;99196.41;;;8.24;55.88
73594;BME280;64760;53.404;23.498;2024-01-27T03:36:57;99195.59;;;8.92;53.75
73594;BME280;64760;53.404;23.498;2024-01-27T03:39:23;99194.31;;;8.41;54.17
73594;BME280;64760;53.404;23.498;2024-01-27T03:41:50;99207.03;;;7.69;57.62
73594;BME280;64760;53.404;23.498;2024-01-27T03:44:16;99186.22;;;8.62;54.45
73594;BME280;64760;53.404;23.498;2024-01-27T03:46:42;99195.09;;;8.76;53.39
73594;BME280;64760;53.404;23.498;2024-01-27T03:49:08;99180.00;;;7.72;56.17
73594;BME280;64760;53.404;23.498;2024-01-27T03:51:34;99200.38;;;7.79;58.02
73594;BME280;64760;53.404;23.498;2024-01-27T03:54:01;99208.34;;;7.37;58.83
73594;BME280;64760;53.404;23.498;2024-01-27T03:56:27;99208.06;;;7.46;58.53
73594;BME280;64760;53.404;23.498;2024-01-27T03:58:54;99209.00;;;7.39;59.57
73594;BME280;64760;53.404;23.498;2024-01-27T04:01:20;99208.16;;;7.81;58.14
73594;BME280;64760;53.404;23.498;2024-01-27T04:03:46;99204.13;;;7.42;59.41
73594;BME280;64760;53.404;23.498;2024-01-27T04:06:12;99213.66;;;7.51;61.03
73594;BME280;64760;53.404;23.498;2024-01-27T04:08:39;99205.06;;;7.77;59.17
73594;BME280;64760;53.404;23.498;2024-01-27T04:11:05;99208.16;;;8.58;58.63
73594;BME280;64760;53.404;23.498;2024-01-27T04:13:31;99203.94;;;7.65;59.98
73594;BME280;64760;53.404;23.498;2024-01-27T04:15:57;99208.69;;;7.70;60.18
73594;BME280;64760;53.404;23.498;2024-01-27T04:18:27;99210.28;;;7.85;59.38
73594;BME280;64760;53.404;23.498;2024-01-27T04:20:53;99215.25;;;7.67;58.71
73594;BME280;64760;53.404;23.498;2024-01-27T04:23:19;99205.44;;;7.53;58.89
73594;BME280;64760;53.404;23.498;2024-01-27T04:25:45;99209.47;;;7.64;59.09
73594;BME280;64760;53.404;23.498;2024-01-27T04:28:12;99219.69;;;7.81;58.67
73594;BME280;64760;53.404;23.498;2024-01-27T04:30:38;99221.34;;;7.82;58.31
73594;BME280;64760;53.404;23.498;2024-01-27T04:33:05;99218.59;;;7.97;58.46
73594;BME280;64760;53.404;23.498;2024-01-27T04:35:33;99229.06;;;7.77;60.06
73594;BME280;64760;53.404;23.498;2024-01-27T04:37:59;99228.19;;;8.40;57.05
73594;BME280;64760;53.404;23.498;2024-01-27T04:40:25;99230.56;;;8.29;56.78
73594;BME280;64760;53.404;23.498;2024-01-27T04:42:52;99224.47;;;8.69;55.35
73594;BME280;64760;53.404;23.498;2024-01-27T04:45:18;99229.09;;;8.26;56.92
73594;BME280;64760;53.404;23.498;2024-01-27T04:47:45;99230.47;;;8.71;55.83
73594;BME280;64760;53.404;23.498;2024-01-27T04:50:11;99228.25;;;8.81;54.88
73594;BME280;64760;53.404;23.498;2024-01-27T04:52:37;99240.50;;;8.35;57.37
73594;BME280;64760;53.404;23.498;2024-01-27T04:55:03;99245.94;;;8.82;55.69
73594;BME280;64760;53.404;23.498;2024-01-27T04:57:30;99248.44;;;8.90;55.54
73594;BME280;64760;53.404;23.498;2024-01-27T04:59:57;99242.09;;;8.91;54.94
73594;BME280;64760;53.404;23.498;2024-01-27T05:02:23;99224.88;;;9.07;54.39
73594;BME280;64760;53.404;23.498;2024-01-27T05:04:49;99238.47;;;8.71;54.88
73594;BME280;64760;53.404;23.498;2024-01-27T05:07:16;99248.72;;;9.02;54.86
73594;BME280;64760;53.404;23.498;2024-01-27T05:09:42;99239.63;;;8.96;54.89
73594;BME280;64760;53.404;23.498;2024-01-27T05:12:08;99252.13;;;8.89;55.56
73594;BME280;64760;53.404;23.498;2024-01-27T05:14:34;99246.63;;;8.98;55.02
73594;BME280;64760;53.404;23.498;2024-01-27T05:17:01;99246.41;;;8.58;56.05
73594;BME280;64760;53.404;23.498;2024-01-27T05:19:27;99249.91;;;8.31;57.93
73594;BME280;64760;53.404;23.498;2024-01-27T05:21:53;99247.06;;;9.08;55.55
73594;BME280;64760;53.404;23.498;2024-01-27T05:24:19;99256.63;;;8.82;55.38
73594;BME280;64760;53.404;23.498;2024-01-27T05:26:45;99254.16;;;9.28;55.04
73594;BME280;64760;53.404;23.498;2024-01-27T05:29:12;99261.25;;;9.56;53.79
73594;BME280;64760;53.404;23.498;2024-01-27T05:31:38;99258.34;;;8.96;55.57
73594;BME280;64760;53.404;23.498;2024-01-27T05:34:04;99279.91;;;9.36;55.15
73594;BME280;64760;53.404;23.498;2024-01-27T05:36:30;99273.59;;;9.57;53.72
73594;BME280;64760;53.404;23.498;2024-01-27T05:38:56;99251.00;;;9.66;53.44
73594;BME280;64760;53.404;23.498;2024-01-27T05:41:26;99272.91;;;8.87;56.19
73594;BME280;64760;53.404;23.498;2024-01-27T05:43:54;99275.16;;;8.90;56.99
73594;BME280;64760;53.404;23.498;2024-01-27T05:46:25;99281.66;;;9.63;54.54
73594;BME280;64760;53.404;23.498;2024-01-27T05:48:52;99273.84;;;9.62;54.27
73594;BME280;64760;53.404;23.498;2024-01-27T05:51:21;99289.91;;;9.68;54.26
73594;BME280;64760;53.404;23.498;2024-01-27T05:53:49;99280.19;;;9.54;54.54
73594;BME280;64760;53.404;23.498;2024-01-27T05:56:15;99289.44;;;9.52;55.14
73594;BME280;64760;53.404;23.498;2024-01-27T05:58:44;99294.47;;;8.58;57.41
73594;BME280;64760;53.404;23.498;2024-01-27T06:01:11;99297.88;;;8.73;58.42
73594;BME280;64760;53.404;23.498;2024-01-27T06:03:37;99297.31;;;8.84;58.32
73594;BME280;64760;53.404;23.498;2024-01-27T06:06:03;99304.94;;;9.22;57.01
73594;BME280;64760;53.404;23.498;2024-01-27T06:08:29;99309.84;;;9.59;56.06
73594;BME280;64760;53.404;23.498;2024-01-27T06:10:56;99306.81;;;9.82;54.85
73594;BME280;64760;53.404;23.498;2024-01-27T06:13:22;99304.34;;;9.80;54.85
73594;BME280;64760;53.404;23.498;2024-01-27T06:15:48;99310.16;;;9.90;54.51
73594;BME280;64760;53.404;23.498;2024-01-27T06:18:14;99320.63;;;9.92;54.64
73594;BME280;64760;53.404;23.498;2024-01-27T06:20:41;99303.44;;;9.60;55.62
73594;BME280;64760;53.404;23.498;2024-01-27T06:23:07;99308.59;;;9.55;56.42
73594;BME280;64760;53.404;23.498;2024-01-27T06:25:34;99328.25;;;9.88;55.03
73594;BME280;64760;53.404;23.498;2024-01-27T06:28:00;99322.94;;;10.08;54.30
73594;BME280;64760;53.404;23.498;2024-01-27T06:30:26;99330.38;;;9.46;56.07
73594;BME280;64760;53.404;23.498;2024-01-27T06:32:53;99336.06;;;8.25;62.12
73594;BME280;64760;53.404;23.498;2024-01-27T06:35:19;99344.31;;;8.72;60.64
73594;BME280;64760;53.404;23.498;2024-01-27T06:37:45;99330.28;;;8.91;59.38
73594;BME280;64760;53.404;23.498;2024-01-27T06:40:12;99348.69;;;8.80;59.95
73594;BME280;64760;53.404;23.498;2024-01-27T06:42:38;99349.75;;;9.20;59.07
73594;BME280;64760;53.404;23.498;2024-01-27T06:45:05;99350.09;;;9.04;59.50
73594;BME280;64760;53.404;23.498;2024-01-27T06:47:32;99350.66;;;9.27;58.88
73594;BME280;64760;53.404;23.498;2024-01-27T06:49:58;99348.59;;;9.29;58.01
73594;BME280;64760;53.404;23.498;2024-01-27T06:52:25;99351.34;;;9.08;59.27
73594;BME280;64760;53.404;23.498;2024-01-27T06:54:51;99346.78;;;9.02;60.07
73594;BME280;64760;53.404;23.498;2024-01-27T06:57:21;99356.91;;;8.78;60.40
73594;BME280;64760;53.404;23.498;2024-01-27T06:59:49;99367.06;;;9.24;60.71
73594;BME280;64760;53.404;23.498;2024-01-27T07:02:22;99354.69;;;9.16;59.34
73594;BME280;64760;53.404;23.498;2024-01-27T07:04:48;99377.88;;;9.09;59.81
73594;BME280;64760;53.404;23.498;2024-01-27T07:07:14;99378.09;;;9.42;59.12
73594;BME280;64760;53.404;23.498;2024-01-27T07:09:41;99367.25;;;9.57;58.28
73594;BME280;64760;53.404;23.498;2024-01-27T07:12:09;99379.56;;;9.10;60.33
73594;BME280;64760;53.404;23.498;2024-01-27T07:14:36;99376.50;;;9.54;58.79
73594;BME280;64760;53.404;23.498;2024-01-27T07:17:03;99375.31;;;9.22;59.08
73594;BME280;64760;53.404;23.498;2024-01-27T07:19:30;99380.44;;;9.58;58.51
73594;BME280;64760;53.404;23.498;2024-01-27T07:21:56;99383.34;;;9.63;58.69
73594;BME280;64760;53.404;23.498;2024-01-27T07:24:23;99374.78;;;9.87;57.01
73594;BME280;64760;53.404;23.498;2024-01-27T07:26:49;99381.38;;;9.91;56.93
73594;BME280;64760;53.404;23.498;2024-01-27T07:29:15;99391.66;;;9.88;57.62
73594;BME280;64760;53.404;23.498;2024-01-27T07:31:41;99387.28;;;9.33;59.46
73594;BME280;64760;53.404;23.498;2024-01-27T07:34:08;99396.59;;;9.84;57.40
73594;BME280;64760;53.404;23.498;2024-01-27T07:36:34;99392.97;;;9.99;57.54
73594;BME280;64760;53.404;23.498;2024-01-27T07:39:01;99404.78;;;10.17;56.62
73594;BME280;64760;53.404;23.498;2024-01-27T07:41:27;99408.91;;;10.20;56.29
73594;BME280;64760;53.404;23.498;2024-01-27T07:43:56;99401.41;;;10.02;56.97
73594;BME280;64760;53.404;23.498;2024-01-27T07:46:22;99407.19;;;10.12;56.28
73594;BME280;64760;53.404;23.498;2024-01-27T07:48:49;99409.13;;;10.18;56.33
73594;BME280;64760;53.404;23.498;2024-01-27T07:51:17;99416.06;;;10.13;57.01
73594;BME280;64760;53.404;23.498;2024-01-27T07:53:44;99408.63;;;10.02;56.19
73594;BME280;64760;53.404;23.498;2024-01-27T07:56:10;99412.81;;;10.24;56.47
73594;BME280;64760;53.404;23.498;2024-01-27T07:58:36;99421.00;;;10.03;56.95
73594;BME280;64760;53.404;23.498;2024-01-27T08:01:03;99421.88;;;10.16;56.01
73594;BME280;64760;53.404;23.498;2024-01-27T08:03:29;99431.06;;;10.55;55.63
73594;BME280;64760;53.404;23.498;2024-01-27T08:05:55;99431.69;;;10.96;54.58
73594;BME280;64760;53.404;23.498;2024-01-27T08:08:22;99437.66;;;10.92;54.29
73594;BME280;64760;53.404;23.498;2024-01-27T08:10:49;99438.44;;;10.46;55.93
73594;BME280;64760;53.404;23.498;2024-01-27T08:13:15;99440.75;;;10.75;55.49
73594;BME280;64760;53.404;23.498;2024-01-27T08:15:41;99457.16;;;10.40;55.94
73594;BME280;64760;53.404;23.498;2024-01-27T08:18:08;99453.22;;;10.29;56.84
73594;BME280;64760;53.404;23.498;2024-01-27T08:20:34;99464.78;;;10.23;56.56
73594;BME280;64760;53.404;23.498;2024-01-27T08:23:01;99464.69;;;9.34;61.53
73594;BME280;64760;53.404;23.498;2024-01-27T08:25:27;99457.91;;;9.38;60.46
73594;BME280;64760;53.404;23.498;2024-01-27T08:27:53;99461.97;;;10.51;57.47
73594;BME280;64760;53.404;23.498;2024-01-27T08:30:19;99466.56;;;10.16;58.32
73594;BME280;64760;53.404;23.498;2024-01-27T08:32:45;99464.81;;;10.43;56.75
73594;BME280;64760;53.404;23.498;2024-01-27T08:35:12;99475.78;;;10.67;55.69
73594;BME280;64760;53.404;23.498;2024-01-27T08:37:38;99481.38;;;10.72;55.61
73594;BME280;64760;53.404;23.498;2024-01-27T08:40:05;99488.66;;;10.18;57.75
73594;BME280;64760;53.404;23.498;2024-01-27T08:42:32;99501.63;;;9.52;60.64
73594;BME280;64760;53.404;23.498;2024-01-27T08:44:58;99488.13;;;10.42;56.53
73594;BME280;64760;53.404;23.498;2024-01-27T08:47:24;99494.13;;;10.57;56.92
73594;BME280;64760;53.404;23.498;2024-01-27T08:49:50;99511.69;;;10.79;55.70
73594;BME280;64760;53.404;23.498;2024-01-27T08:52:17;99507.41;;;11.05;54.87
73594;BME280;64760;53.404;23.498;2024-01-27T08:54:43;99515.22;;;10.80;55.47
73594;BME280;64760;53.404;23.498;2024-01-27T08:57:10;99518.53;;;10.95;55.00
73594;BME280;64760;53.404;23.498;2024-01-27T08:59:36;99513.81;;;11.30;54.04
73594;BME280;64760;53.404;23.498;2024-01-27T09:02:02;99527.78;;;10.66;55.73
73594;BME280;64760;53.404;23.498;2024-01-27T09:04:28;99521.94;;;10.09;58.02
73594;BME280;64760;53.404;23.498;2024-01-27T09:06:55;99517.00;;;10.60;56.81
73594;BME280;64760;53.404;23.498;2024-01-27T09:09:21;99522.25;;;11.07;55.03
73594;BME280;64760;53.404;23.498;2024-01-27T09:11:54;99530.09;;;10.82;55.70
73594;BME280;64760;53.404;23.498;2024-01-27T09:14:21;99531.81;;;10.43;56.48
73594;BME280;64760;53.404;23.498;2024-01-27T09:16:47;99537.13;;;11.36;54.24
73594;BME280;64760;53.404;23.498;2024-01-27T09:19:13;99535.50;;;11.28;54.55
73594;BME280;64760;53.404;23.498;2024-01-27T09:21:40;99538.97;;;10.90;55.99
73594;BME280;64760;53.404;23.498;2024-01-27T09:24:06;99550.47;;;10.70;56.85
73594;BME280;64760;53.404;23.498;2024-01-27T09:26:33;99546.56;;;9.91;59.81
73594;BME280;64760;53.404;23.498;2024-01-27T09:28:59;99552.22;;;9.75;61.40
73594;BME280;64760;53.404;23.498;2024-01-27T09:31:25;99568.16;;;10.17;60.57
73594;BME280;64760;53.404;23.498;2024-01-27T09:33:53;99557.28;;;9.91;61.54
73594;BME280;64760;53.404;23.498;2024-01-27T09:36:21;99550.38;;;10.10;60.48
73594;BME280;64760;53.404;23.498;2024-01-27T09:38:47;99564.66;;;10.58;59.05
73594;BME280;64760;53.404;23.498;2024-01-27T09:41:14;99566.13;;;10.73;57.92
73594;BME280;64760;53.404;23.498;2024-01-27T09:43:44;99583.41;;;10.58;58.56
73594;BME280;64760;53.404;23.498;2024-01-27T09:46:17;99583.16;;;10.46;60.46
73594;BME280;64760;53.404;23.498;2024-01-27T09:48:43;99578.44;;;9.58;62.98
73594;BME280;64760;53.404;23.498;2024-01-27T09:51:11;99579.88;;;9.82;63.60
73594;BME280;64760;53.404;23.498;2024-01-27T09:53:37;99577.59;;;10.13;61.97
73594;BME280;64760;53.404;23.498;2024-01-27T09:56:04;99585.50;;;9.94;62.54
73594;BME280;64760;53.404;23.498;2024-01-27T09:58:30;99580.81;;;10.30;61.33
73594;BME280;64760;53.404;23.498;2024-01-27T10:00:59;99580.91;;;10.15;61.41
73594;BME280;64760;53.404;23.498;2024-01-27T10:03:28;99584.19;;;10.52;60.88
73594;BME280;64760;53.404;23.498;2024-01-27T10:05:58;99581.31;;;11.14;58.16
73594;BME280;64760;53.404;23.498;2024-01-27T10:08:24;99597.22;;;10.61;59.94
73594;BME280;64760;53.404;23.498;2024-01-27T10:10:54;99593.00;;;10.87;59.68
73594;BME280;64760;53.404;23.498;2024-01-27T10:13:21;99593.13;;;10.65;59.97
73594;BME280;64760;53.404;23.498;2024-01-27T10:16:03;99594.38;;;10.76;59.39
73594;BME280;64760;53.404;23.498;2024-01-27T10:18:30;99605.59;;;10.11;61.91
73594;BME280;64760;53.404;23.498;2024-01-27T10:20:57;99608.50;;;11.04;58.48
73594;BME280;64760;53.404;23.498;2024-01-27T10:23:23;99604.41;;;11.35;57.26
73594;BME280;64760;53.404;23.498;2024-01-27T10:25:50;99614.75;;;11.18;57.30
73594;BME280;64760;53.404;23.498;2024-01-27T10:28:17;99620.91;;;11.05;59.56
73594;BME280;64760;53.404;23.498;2024-01-27T10:30:44;99607.13;;;10.61;59.54
73594;BME280;64760;53.404;23.498;2024-01-27T10:33:11;99626.69;;;10.55;60.78
73594;BME280;64760;53.404;23.498;2024-01-27T10:35:42;99628.22;;;10.70;60.45
73594;BME280;64760;53.404;23.498;2024-01-27T10:38:08;99630.50;;;10.39;60.86
73594;BME280;64760;53.404;23.498;2024-01-27T10:40:35;99634.72;;;10.55;60.58
73594;BME280;64760;53.404;23.498;2024-01-27T10:43:03;99638.97;;;10.83;60.21
73594;BME280;64760;53.404;23.498;2024-01-27T10:45:40;99629.47;;;10.74;60.21
73594;BME280;64760;53.404;23.498;2024-01-27T10:48:08;99648.34;;;10.19;62.93
73594;BME280;64760;53.404;23.498;2024-01-27T10:50:40;99638.88;;;10.64;60.23
73594;BME280;64760;53.404;23.498;2024-01-27T10:53:09;99650.41;;;10.58;61.45
73594;BME280;64760;53.404;23.498;2024-01-27T10:55:43;99643.41;;;11.17;58.03
73594;BME280;64760;53.404;23.498;2024-01-27T10:58:12;99658.63;;;11.04;58.47
73594;BME280;64760;53.404;23.498;2024-01-27T11:00:38;99667.03;;;10.88;58.94
73594;BME280;64760;53.404;23.498;2024-01-27T11:03:07;99672.41;;;10.88;59.46
73594;BME280;64760;53.404;23.498;2024-01-27T11:05:35;99676.13;;;8.61;69.00
73594;BME280;64760;53.404;23.498;2024-01-27T11:08:02;99677.19;;;9.53;67.62
73594;BME280;64760;53.404;23.498;2024-01-27T11:10:29;99679.94;;;10.30;63.43
73594;BME280;64760;53.404;23.498;2024-01-27T11:13:04;99683.78;;;10.55;61.65
73594;BME280;64760;53.404;23.498;2024-01-27T11:15:31;99695.31;;;9.51;66.83
73594;BME280;64760;53.404;23.498;2024-01-27T11:17:58;99684.97;;;9.48;66.71
73594;BME280;64760;53.404;23.498;2024-01-27T11:20:33;99703.06;;;9.88;65.04
73594;BME280;64760;53.404;23.498;2024-01-27T11:23:13;99694.66;;;10.47;62.72
73594;BME280;64760;53.404;23.498;2024-01-27T11:25:43;99712.75;;;9.68;65.47
73594;BME280;64760;53.404;23.498;2024-01-27T11:28:14;99713.47;;;10.54;63.23
73594;BME280;64760;53.404;23.498;2024-01-27T11:30:47;99723.34;;;10.47;63.16
73594;BME280;64760;53.404;23.498;2024-01-27T11:33:15;99683.31;;;10.45;61.01
73594;BME280;64760;53.404;23.498;2024-01-27T11:35:41;99724.97;;;10.48;61.38
73594;BME280;64760;53.404;23.498;2024-01-27T11:38:08;99731.72;;;9.52;66.69
73594;BME280;64760;53.404;23.498;2024-01-27T11:40:45;99732.28;;;10.11;62.53
73594;BME280;64760;53.404;23.498;2024-01-27T11:43:12;99698.47;;;9.82;63.65
73594;BME280;64760;53.404;23.498;2024-01-27T11:45:43;99734.63;;;10.76;61.29
73594;BME280;64760;53.404;23.498;2024-01-27T11:48:10;99736.50;;;11.84;56.63
73594;BME280;64760;53.404;23.498;2024-01-27T11:50:36;99737.56;;;10.81;59.29
73594;BME280;64760;53.404;23.498;2024-01-27T11:53:04;99742.84;;;10.68;60.77
73594;BME280;64760;53.404;23.498;2024-01-27T11:55:33;99735.06;;;10.46;62.35
73594;BME280;64760;53.404;23.498;2024-01-27T11:58:00;99761.66;;;8.90;68.62
73594;BME280;64760;53.404;23.498;2024-01-27T12:00:26;99761.16;;;9.52;66.28
73594;BME280;64760;53.404;23.498;2024-01-27T12:02:52;99760.19;;;10.17;63.42
73594;BME280;64760;53.404;23.498;2024-01-27T12:05:19;99771.78;;;10.79;60.65
73594;BME280;64760;53.404;23.498;2024-01-27T12:07:45;99774.22;;;10.19;63.48
73594;BME280;64760;53.404;23.498;2024-01-27T12:10:11;99770.03;;;9.53;64.74
73594;BME280;64760;53.404;23.498;2024-01-27T12:12:37;99778.31;;;9.22;67.63
73594;BME280;64760;53.404;23.498;2024-01-27T12:15:04;99784.66;;;9.93;64.91
73594;BME280;64760;53.404;23.498;2024-01-27T12:17:31;99783.19;;;9.90;62.47
73594;BME280;64760;53.404;23.498;2024-01-27T12:19:57;99784.28;;;11.41;59.06
73594;BME280;64760;53.404;23.498;2024-01-27T12:22:28;99786.53;;;11.44;57.67
73594;BME280;64760;53.404;23.498;2024-01-27T12:25:17;99796.44;;;10.68;60.23
73594;BME280;64760;53.404;23.498;2024-01-27T12:27:43;99798.59;;;9.88;63.59
73594;BME280;64760;53.404;23.498;2024-01-27T12:30:10;99806.69;;;11.27;58.77
73594;BME280;64760;53.404;23.498;2024-01-27T12:32:37;99799.81;;;10.49;61.59
73594;BME280;64760;53.404;23.498;2024-01-27T12:35:08;99815.81;;;10.15;63.40
73594;BME280;64760;53.404;23.498;2024-01-27T12:37:34;99818.66;;;10.34;62.99
73594;BME280;64760;53.404;23.498;2024-01-27T12:40:02;99822.53;;;10.32;61.94
73594;BME280;64760;53.404;23.498;2024-01-27T12:42:28;99821.84;;;10.23;62.91
73594;BME280;64760;53.404;23.498;2024-01-27T12:44:55;99819.97;;;9.81;64.01
73594;BME280;64760;53.404;23.498;2024-01-27T12:47:21;99829.59;;;9.97;63.35
73594;BME280;64760;53.404;23.498;2024-01-27T12:49:49;99823.13;;;11.52;57.99
73594;BME280;64760;53.404;23.498;2024-01-27T12:52:15;99828.38;;;10.63;62.74
73594;BME280;64760;53.404;23.498;2024-01-27T12:54:41;99843.41;;;11.20;60.00
73594;BME280;64760;53.404;23.498;2024-01-27T12:57:08;99851.31;;;10.45;63.78